createdAt,value
2022-09-12T00:01:09.425Z,5.30
2022-09-12T00:03:44.040Z,4.80
2022-09-12T00:06:17.161Z,5.20
2022-09-12T00:08:47.563Z,5.00
2022-09-12T00:11:15.729Z,4.90
2022-09-12T00:13:44.156Z,5.10
2022-09-12T00:16:16.981Z,5.00
2022-09-12T00:18:46.950Z,5.20
2022-09-12T00:21:16.261Z,5.20
2022-09-12T00:23:44.384Z,4.80
2022-09-12T00:26:12.590Z,5.00
2022-09-12T00:28:40.860Z,4.70
2022-09-12T00:31:11.195Z,5.10
2022-09-12T00:33:40.364Z,4.80
2022-09-12T00:36:10.425Z,4.70
2022-09-12T00:38:42.206Z,4.90
2022-09-12T00:41:20.543Z,4.70
2022-09-12T00:43:56.050Z,4.40
2022-09-12T00:46:53.019Z,4.40
2022-09-12T00:49:23.672Z,4.50
2022-09-12T00:51:54.396Z,4.60
2022-09-12T00:54:24.003Z,5.20
2022-09-12T00:56:53.400Z,5.00
2022-09-12T00:59:22.806Z,4.80
2022-09-12T01:01:51.799Z,5.10
2022-09-12T01:04:21.306Z,4.80
2022-09-12T01:06:49.999Z,4.90
2022-09-12T01:09:19.700Z,4.80
2022-09-12T01:11:48.796Z,4.70
2022-09-12T01:14:17.638Z,5.10
2022-09-12T01:16:46.200Z,4.90
2022-09-12T01:19:33.299Z,5.00
2022-09-12T01:24:28.816Z,4.70
2022-09-12T01:27:15.417Z,4.70
2022-09-12T01:29:45.846Z,4.60
2022-09-12T01:32:13.548Z,4.30
2022-09-12T01:34:53.781Z,4.80
2022-09-12T01:37:28.589Z,4.50
2022-09-12T01:40:16.402Z,4.60
2022-09-12T01:43:03.439Z,4.70
2022-09-12T01:45:37.655Z,4.90
2022-09-12T01:48:13.716Z,4.30
2022-09-12T01:50:47.789Z,4.50
2022-09-12T01:53:19.155Z,4.50
2022-09-12T01:55:57.998Z,4.90
2022-09-12T01:58:29.449Z,4.80
2022-09-12T02:01:01.537Z,4.20
2022-09-12T02:03:33.269Z,4.60
2022-09-12T02:06:04.683Z,4.60
2022-09-12T02:08:35.485Z,4.50
2022-09-12T02:11:10.551Z,4.50
2022-09-12T02:13:43.137Z,4.50
2022-09-12T02:16:18.252Z,4.50
2022-09-12T02:18:49.963Z,4.50
2022-09-12T02:21:19.382Z,4.40
2022-09-12T02:23:51.426Z,4.70
2022-09-12T02:26:20.754Z,4.70
2022-09-12T02:28:48.901Z,4.60
2022-09-12T02:31:33.865Z,4.70
2022-09-12T02:34:20.470Z,5.00
2022-09-12T02:36:48.236Z,4.70
2022-09-12T02:39:20.209Z,4.70
2022-09-12T02:41:50.725Z,5.00
2022-09-12T02:44:19.111Z,5.00
2022-09-12T02:46:50.931Z,6.10
2022-09-12T02:49:19.128Z,5.80
2022-09-12T02:51:47.827Z,6.00
2022-09-12T02:54:16.617Z,4.80
2022-09-12T02:56:45.397Z,4.70
2022-09-12T02:59:15.642Z,4.80
2022-09-12T03:01:46.718Z,5.10
2022-09-12T03:04:17.700Z,5.30
2022-09-12T03:07:03.555Z,4.90
2022-09-12T03:09:36.497Z,5.10
2022-09-12T03:12:14.381Z,5.00
2022-09-12T03:15:01.788Z,4.70
2022-09-12T03:17:53.021Z,5.20
2022-09-12T03:20:27.536Z,4.70
2022-09-12T03:22:57.143Z,4.70
2022-09-12T03:25:24.906Z,5.70
2022-09-12T03:27:59.022Z,5.00
2022-09-12T03:30:27.658Z,5.40
2022-09-12T03:32:55.882Z,5.70
2022-09-12T03:35:24.974Z,5.20
2022-09-12T03:37:53.254Z,6.00
2022-09-12T03:40:21.326Z,5.70
2022-09-12T03:42:49.186Z,5.10
2022-09-12T03:45:17.082Z,4.90
2022-09-12T03:47:44.732Z,5.50
2022-09-12T03:50:12.389Z,4.90
2022-09-12T03:52:40.036Z,5.30
2022-09-12T03:55:07.827Z,5.30
2022-09-12T03:57:35.745Z,5.20
2022-09-12T04:00:04.474Z,5.70
2022-09-12T04:02:32.454Z,5.40
2022-09-12T04:05:00.521Z,5.30
2022-09-12T04:07:28.872Z,5.40
2022-09-12T04:09:56.739Z,5.60
2022-09-12T04:12:24.814Z,5.10
2022-09-12T04:14:52.572Z,5.70
2022-09-12T04:17:20.644Z,5.60
2022-09-12T04:19:48.408Z,6.00
2022-09-12T04:22:16.070Z,5.40
2022-09-12T04:24:43.765Z,5.90
2022-09-12T04:27:11.684Z,5.70
2022-09-12T04:29:39.443Z,5.50
2022-09-12T04:32:07.234Z,5.60
2022-09-12T04:34:34.995Z,5.90
2022-09-12T04:37:02.944Z,6.30
2022-09-12T04:39:31.235Z,6.80
2022-09-12T04:42:00.026Z,6.30
2022-09-12T04:44:27.610Z,6.30
2022-09-12T04:46:55.163Z,6.00
2022-09-12T04:49:22.907Z,5.80
2022-09-12T04:51:52.717Z,5.60
2022-09-12T04:54:20.892Z,5.80
2022-09-12T04:56:49.787Z,5.40
2022-09-12T04:59:18.441Z,5.30
2022-09-12T05:01:46.332Z,5.90
2022-09-12T05:04:14.750Z,5.70
2022-09-12T05:06:43.600Z,5.80
2022-09-12T05:09:12.808Z,5.70
2022-09-12T05:14:33.301Z,5.50
2022-09-12T05:17:02.214Z,4.70
2022-09-12T05:19:30.995Z,5.10
2022-09-12T05:21:59.462Z,4.20
2022-09-12T05:24:27.198Z,4.50
2022-09-12T05:26:55.227Z,4.30
2022-09-12T05:29:23.086Z,4.90
2022-09-12T05:31:52.349Z,4.70
2022-09-12T05:34:20.719Z,4.80
2022-09-12T05:36:49.600Z,5.10
2022-09-12T05:39:18.701Z,4.60
2022-09-12T05:41:48.033Z,4.60
2022-09-12T05:44:16.070Z,4.70
2022-09-12T05:46:52.061Z,4.70
2022-09-12T05:49:21.453Z,4.40
2022-09-12T05:51:49.833Z,4.40
2022-09-12T05:54:20.507Z,4.30
2022-09-12T05:56:49.264Z,4.30
2022-09-12T05:59:19.584Z,4.50
2022-09-12T06:01:48.854Z,3.90
2022-09-12T06:04:17.779Z,4.30
2022-09-12T06:06:46.461Z,4.60
2022-09-12T06:09:15.630Z,4.30
2022-09-12T06:11:45.062Z,4.50
2022-09-12T06:14:15.385Z,4.70
2022-09-12T06:16:43.436Z,4.80
2022-09-12T06:19:16.337Z,4.40
2022-09-12T06:21:45.044Z,4.60
2022-09-12T06:24:12.991Z,5.00
2022-09-12T06:26:40.856Z,4.60
2022-09-12T06:29:12.075Z,4.30
2022-09-12T06:31:41.519Z,4.10
2022-09-12T06:34:10.707Z,4.00
2022-09-12T06:36:40.002Z,3.90
2022-09-12T06:39:10.697Z,3.80
2022-09-12T06:41:43.535Z,4.40
2022-09-12T06:44:16.258Z,4.10
2022-09-12T06:46:44.784Z,4.30
2022-09-12T06:49:12.688Z,4.00
2022-09-12T06:51:42.219Z,4.20
2022-09-12T06:54:12.779Z,4.40
2022-09-12T06:56:40.872Z,4.20
2022-09-12T06:59:08.921Z,3.70
2022-09-12T07:01:37.173Z,3.80
2022-09-12T07:04:05.689Z,3.70
2022-09-12T07:06:44.823Z,3.00
2022-09-12T07:09:16.411Z,3.20
2022-09-12T07:11:45.354Z,4.20
2022-09-12T07:14:16.292Z,2.80
2022-09-12T07:16:44.263Z,3.20
2022-09-12T07:19:12.537Z,2.90
2022-09-12T07:21:42.150Z,3.00
2022-09-12T07:24:11.104Z,2.60
2022-09-12T07:26:42.449Z,2.50
2022-09-12T07:29:35.288Z,2.80
2022-09-12T07:32:02.689Z,2.80
2022-09-12T07:34:31.173Z,3.00
2022-09-12T07:36:59.047Z,2.30
2022-09-12T07:39:26.864Z,2.70
2022-09-12T07:41:55.076Z,2.70
2022-09-12T07:44:24.056Z,3.00
2022-09-12T07:46:52.826Z,2.90
2022-09-12T07:49:21.192Z,2.50
2022-09-12T07:51:49.145Z,2.40
2022-09-12T07:54:17.993Z,2.50
2022-09-12T07:56:46.064Z,2.40
2022-09-12T07:59:18.887Z,2.40
2022-09-12T08:01:53.368Z,2.50
2022-09-12T08:04:21.452Z,2.60
2022-09-12T08:06:49.508Z,2.40
2022-09-12T08:09:17.991Z,3.20
2022-09-12T08:11:45.763Z,2.80
2022-09-12T08:14:13.578Z,2.60
2022-09-12T08:16:41.395Z,2.50
2022-09-12T08:19:09.867Z,2.50
2022-09-12T08:21:37.628Z,2.70
2022-09-12T08:24:06.377Z,2.90
2022-09-12T08:26:37.152Z,2.60
2022-09-12T08:29:05.218Z,2.70
2022-09-12T08:31:36.801Z,2.50
2022-09-12T08:34:05.664Z,2.80
2022-09-12T08:36:34.050Z,2.50
2022-09-12T08:39:05.594Z,2.40
2022-09-12T08:41:47.488Z,2.60
2022-09-12T08:44:35.032Z,2.60
2022-09-12T08:47:22.018Z,2.40
2022-09-12T08:52:20.835Z,2.50
2022-09-12T08:54:50.165Z,2.40
2022-09-12T08:57:18.720Z,2.40
2022-09-12T08:59:46.890Z,2.40
2022-09-12T09:02:29.783Z,2.60
2022-09-12T09:05:18.032Z,2.40
2022-09-12T09:07:55.963Z,2.50
2022-09-12T09:10:27.307Z,2.30
2022-09-12T09:13:14.204Z,2.80
2022-09-12T09:15:42.352Z,2.60
2022-09-12T09:18:13.944Z,2.90
2022-09-12T09:20:45.032Z,2.50
2022-09-12T09:23:19.857Z,2.40
2022-09-12T09:25:58.247Z,2.50
2022-09-12T09:28:32.488Z,2.20
2022-09-12T09:31:00.883Z,2.20
2022-09-12T09:33:33.274Z,2.30
2022-09-12T09:36:02.087Z,2.20
2022-09-12T09:38:48.583Z,2.60
2022-09-12T09:41:25.467Z,2.60
2022-09-12T09:43:56.411Z,2.40
2022-09-12T09:46:24.707Z,2.30
2022-09-12T09:48:53.833Z,2.30
2022-09-12T09:51:34.107Z,2.60
2022-09-12T09:54:05.695Z,2.60
2022-09-12T09:56:35.290Z,2.50
2022-09-12T09:59:10.420Z,2.40
2022-09-12T10:01:54.923Z,2.50
2022-09-12T10:04:24.389Z,2.30
2022-09-12T10:06:54.443Z,2.80
2022-09-12T10:09:25.136Z,2.50
2022-09-12T10:11:53.572Z,2.50
2022-09-12T10:14:41.693Z,2.50
2022-09-12T10:17:33.189Z,2.30
2022-09-12T10:20:21.184Z,2.60
2022-09-12T10:22:51.018Z,2.50
2022-09-12T10:25:20.379Z,2.40
2022-09-12T10:27:53.713Z,2.00
2022-09-12T10:30:25.248Z,2.20
2022-09-12T10:32:54.204Z,2.40
2022-09-12T10:35:25.541Z,2.20
2022-09-12T10:38:13.616Z,2.10
2022-09-12T10:40:43.205Z,2.40
2022-09-12T10:43:19.211Z,2.40
2022-09-12T10:45:49.247Z,2.30
2022-09-12T10:48:36.655Z,2.30
2022-09-12T10:51:04.730Z,2.00
2022-09-12T10:53:41.173Z,2.10
2022-09-12T10:56:22.680Z,2.60
2022-09-12T10:58:53.818Z,2.30
2022-09-12T11:01:40.692Z,2.20
2022-09-12T11:04:21.076Z,2.40
2022-09-12T11:06:51.832Z,2.00
2022-09-12T11:09:26.418Z,2.10
2022-09-12T11:12:00.483Z,2.30
2022-09-12T11:14:34.580Z,2.10
2022-09-12T11:17:07.521Z,1.80
2022-09-12T11:19:51.200Z,2.10
2022-09-12T11:22:22.848Z,1.80
2022-09-12T11:25:05.981Z,2.00
2022-09-12T11:27:43.756Z,2.00
2022-09-12T11:30:13.692Z,1.80
2022-09-12T11:33:01.835Z,2.00
2022-09-12T11:35:30.632Z,2.40
2022-09-12T11:38:19.277Z,2.00
2022-09-12T11:41:01.479Z,2.10
2022-09-12T11:43:33.683Z,2.00
2022-09-12T11:46:08.295Z,2.10
2022-09-12T11:48:39.538Z,1.90
2022-09-12T11:51:15.663Z,2.00
2022-09-12T11:53:45.121Z,1.80
2022-09-12T11:56:18.308Z,2.00
2022-09-12T11:58:49.413Z,2.10
2022-09-12T12:01:22.830Z,2.10
2022-09-12T12:03:52.852Z,1.80
2022-09-12T12:06:24.405Z,2.00
2022-09-12T12:08:55.011Z,2.00
2022-09-12T12:11:31.171Z,1.90
2022-09-12T12:14:05.036Z,2.00
2022-09-12T12:16:35.083Z,2.10
2022-09-12T12:19:15.068Z,2.30
2022-09-12T12:21:50.002Z,1.90
2022-09-12T12:24:24.778Z,1.80
2022-09-12T12:26:58.070Z,1.70
2022-09-12T12:29:38.260Z,2.10
2022-09-12T12:32:08.075Z,2.40
2022-09-12T12:34:35.946Z,1.60
2022-09-12T12:37:21.522Z,1.60
2022-09-12T12:40:01.190Z,1.80
2022-09-12T12:42:33.118Z,2.10
2022-09-12T12:45:03.794Z,1.60
2022-09-12T12:47:34.392Z,2.00
2022-09-12T12:50:05.295Z,1.90
2022-09-12T12:52:48.748Z,2.20
2022-09-12T12:55:19.994Z,1.90
2022-09-12T12:57:52.163Z,2.00
2022-09-12T13:00:30.091Z,1.50
2022-09-12T13:03:07.145Z,2.10
2022-09-12T13:05:42.859Z,1.70
2022-09-12T13:08:16.753Z,1.70
2022-09-12T13:10:52.402Z,1.70
2022-09-12T13:13:25.081Z,1.80
2022-09-12T13:15:53.359Z,1.70
2022-09-12T13:18:28.031Z,2.00
2022-09-12T13:21:01.632Z,1.70
2022-09-12T13:23:31.343Z,1.70
2022-09-12T13:26:01.355Z,1.70
2022-09-12T13:28:30.979Z,2.00
2022-09-12T13:30:59.453Z,2.10
2022-09-12T13:33:33.867Z,2.20
2022-09-12T13:36:17.846Z,2.20
2022-09-12T13:38:48.702Z,2.10
2022-09-12T13:41:23.226Z,2.00
2022-09-12T13:43:52.059Z,1.80
2022-09-12T13:46:27.732Z,2.10
2022-09-12T13:49:02.203Z,2.20
2022-09-12T13:51:32.738Z,2.00
2022-09-12T13:54:03.800Z,2.00
2022-09-12T13:56:31.972Z,2.00
2022-09-12T13:59:00.981Z,2.20
2022-09-12T14:01:44.041Z,1.90
2022-09-12T14:04:39.300Z,1.90
2022-09-12T14:07:17.458Z,1.80
2022-09-12T14:09:47.818Z,1.90
2022-09-12T14:12:23.696Z,2.00
2022-09-12T14:14:52.470Z,2.00
2022-09-12T14:17:33.046Z,1.80
2022-09-12T14:20:14.631Z,2.10
2022-09-12T14:22:42.755Z,2.00
2022-09-12T14:25:27.346Z,1.60
2022-09-12T14:28:01.568Z,1.80
2022-09-12T14:30:37.013Z,1.80
2022-09-12T14:33:04.890Z,1.60
2022-09-12T14:35:33.304Z,2.00
2022-09-12T14:38:27.956Z,2.00
2022-09-12T14:41:00.291Z,1.80
2022-09-12T14:43:29.828Z,2.30
2022-09-12T14:46:00.883Z,2.20
2022-09-12T14:48:30.902Z,2.60
2022-09-12T14:50:59.182Z,2.40
2022-09-12T14:53:37.069Z,2.50
2022-09-12T14:56:12.505Z,2.70
2022-09-12T14:58:41.296Z,2.60
2022-09-12T15:01:11.224Z,2.50
2022-09-12T15:03:44.936Z,2.50
2022-09-12T15:06:29.915Z,2.40
2022-09-12T15:08:59.620Z,2.50
2022-09-12T15:11:27.660Z,2.80
2022-09-12T15:13:55.831Z,2.80
2022-09-12T15:16:24.075Z,2.40
2022-09-12T15:18:52.466Z,2.60
2022-09-12T15:21:21.290Z,2.80
2022-09-12T15:23:50.053Z,2.90
2022-09-12T15:26:20.080Z,2.70
2022-09-12T15:28:51.020Z,2.50
2022-09-12T15:31:25.138Z,2.50
2022-09-12T15:33:55.170Z,2.80
2022-09-12T15:36:25.986Z,2.60
2022-09-12T15:38:54.260Z,2.70
2022-09-12T15:41:25.123Z,3.00
2022-09-12T15:43:54.225Z,2.40
2022-09-12T15:46:22.488Z,3.40
2022-09-12T15:48:51.057Z,3.70
2022-09-12T15:51:20.946Z,3.30
2022-09-12T15:53:50.059Z,2.80
2022-09-12T15:56:18.861Z,3.10
2022-09-12T15:58:58.198Z,3.10
2022-09-12T16:01:29.080Z,3.10
2022-09-12T16:03:57.843Z,3.30
2022-09-12T16:06:34.911Z,3.00
2022-09-12T16:09:07.756Z,3.00
2022-09-12T16:11:35.616Z,4.40
2022-09-12T16:14:05.348Z,4.20
2022-09-12T16:16:33.435Z,4.30
2022-09-12T16:19:02.051Z,4.00
2022-09-12T16:21:32.118Z,3.80
2022-09-12T16:24:00.292Z,3.30
2022-09-12T16:26:29.204Z,3.60
2022-09-12T16:28:59.163Z,3.40
2022-09-12T16:31:28.155Z,3.10
2022-09-12T16:33:56.384Z,3.40
2022-09-12T16:36:24.444Z,3.40
2022-09-12T16:38:53.965Z,3.10
2022-09-12T16:41:24.376Z,3.50
2022-09-12T16:43:52.746Z,3.50
2022-09-12T16:46:22.525Z,3.10
2022-09-12T16:48:52.719Z,3.60
2022-09-12T16:51:23.104Z,3.50
2022-09-12T16:53:51.837Z,3.50
2022-09-12T16:56:20.379Z,3.70
2022-09-12T16:58:49.432Z,3.60
2022-09-12T17:01:22.715Z,3.30
2022-09-12T17:03:57.594Z,3.70
2022-09-12T17:06:26.381Z,3.60
2022-09-12T17:08:59.058Z,3.90
2022-09-12T17:11:30.817Z,4.70
2022-09-12T17:14:05.052Z,6.60
2022-09-12T17:19:05.190Z,4.40
2022-09-12T17:21:34.362Z,4.10
2022-09-12T17:24:03.661Z,3.80
2022-09-12T17:26:32.659Z,3.70
2022-09-12T17:29:01.853Z,3.40
2022-09-12T17:31:30.547Z,3.60
2022-09-12T17:33:59.842Z,3.80
2022-09-12T17:36:28.523Z,4.90
2022-09-12T17:38:56.699Z,5.10
2022-09-12T17:41:27.608Z,4.40
2022-09-12T17:43:57.538Z,4.60
2022-09-12T17:46:27.766Z,4.30
2022-09-12T17:48:56.986Z,4.00
2022-09-12T17:51:26.273Z,3.80
2022-09-12T17:54:05.820Z,4.30
2022-09-12T17:56:35.006Z,4.20
2022-09-12T17:59:04.934Z,4.40
2022-09-12T18:01:52.594Z,4.40
2022-09-12T18:04:21.233Z,4.10
2022-09-12T18:06:50.432Z,3.80
2022-09-12T18:09:20.346Z,4.00
2022-09-12T18:11:49.133Z,4.30
2022-09-12T18:14:17.723Z,3.80
2022-09-12T18:16:46.649Z,4.40
2022-09-12T18:19:15.188Z,4.60
2022-09-12T18:21:43.479Z,5.10
2022-09-12T18:24:12.974Z,5.00
2022-09-12T18:26:44.232Z,7.10
2022-09-12T18:29:13.548Z,5.70
2022-09-12T18:31:41.596Z,5.20
2022-09-12T18:34:14.042Z,5.10
2022-09-12T18:36:43.154Z,4.90
2022-09-12T18:39:13.106Z,4.60
2022-09-12T18:41:41.658Z,4.50
2022-09-12T18:44:13.204Z,4.20
2022-09-12T18:46:42.384Z,4.30
2022-09-12T18:49:11.296Z,4.00
2022-09-12T18:51:42.042Z,4.10
2022-09-12T18:54:15.585Z,4.20
2022-09-12T18:56:47.737Z,5.10
2022-09-12T18:59:16.991Z,5.20
2022-09-12T19:01:47.491Z,4.70
2022-09-12T19:04:16.977Z,7.00
2022-09-12T19:06:48.957Z,7.30
2022-09-12T19:09:21.132Z,14.20
2022-09-12T19:11:50.353Z,11.60
2022-09-12T19:14:20.166Z,12.90
2022-09-12T19:16:48.440Z,12.30
2022-09-12T19:19:16.937Z,10.80
2022-09-12T19:21:44.889Z,9.00
2022-09-12T19:24:14.698Z,8.30
2022-09-12T19:26:43.919Z,7.70
2022-09-12T19:29:15.123Z,7.70
2022-09-12T19:31:44.527Z,7.40
2022-09-12T19:34:17.275Z,8.60
2022-09-12T19:36:47.781Z,7.30
2022-09-12T19:39:17.805Z,7.10
2022-09-12T19:41:46.525Z,6.40
2022-09-12T19:44:15.143Z,5.60
2022-09-12T19:46:44.271Z,5.80
2022-09-12T19:49:13.796Z,6.20
2022-09-12T19:51:44.682Z,5.60
2022-09-12T19:54:13.572Z,6.30
2022-09-12T19:56:41.644Z,6.30
2022-09-12T19:59:09.923Z,6.50
2022-09-12T20:01:38.644Z,7.10
2022-09-12T20:04:07.900Z,7.40
2022-09-12T20:06:37.126Z,7.10
2022-09-12T20:09:05.689Z,7.90
2022-09-12T20:11:34.269Z,7.60
2022-09-12T20:14:04.181Z,8.70
2022-09-12T20:16:33.965Z,8.10
2022-09-12T20:19:06.094Z,7.70
2022-09-12T20:21:36.960Z,7.60
2022-09-12T20:24:12.903Z,7.40
2022-09-12T20:26:42.455Z,8.70
2022-09-12T20:29:10.833Z,7.60
2022-09-12T20:31:40.207Z,6.80
2022-09-12T20:34:13.943Z,7.00
2022-09-12T20:36:42.137Z,7.40
2022-09-12T20:39:24.940Z,7.50
2022-09-12T20:41:53.575Z,7.60
2022-09-12T20:44:21.681Z,7.50
2022-09-12T20:46:49.853Z,9.10
2022-09-12T20:49:18.615Z,9.90
2022-09-12T20:51:48.434Z,10.20
2022-09-12T20:54:17.051Z,9.40
2022-09-12T20:56:45.212Z,9.40
2022-09-12T20:59:13.720Z,8.20
2022-09-12T21:01:42.370Z,8.50
2022-09-12T21:04:14.376Z,8.70
2022-09-12T21:06:49.311Z,6.40
2022-09-12T21:09:18.914Z,5.60
2022-09-12T21:11:49.334Z,6.20
2022-09-12T21:14:18.094Z,6.10
2022-09-12T21:16:45.858Z,6.60
2022-09-12T21:19:13.726Z,5.40
2022-09-12T21:21:41.589Z,5.00
2022-09-12T21:24:13.210Z,4.80
2022-09-12T21:26:42.655Z,5.00
2022-09-12T21:29:11.644Z,5.20
2022-09-12T21:31:39.330Z,4.80
2022-09-12T21:34:07.307Z,4.50
2022-09-12T21:36:35.138Z,4.90
2022-09-12T21:39:03.107Z,6.70
2022-09-12T21:41:31.389Z,6.00
2022-09-12T21:43:59.882Z,7.00
2022-09-12T21:46:28.130Z,7.50
2022-09-12T21:48:56.208Z,10.50
2022-09-12T21:51:24.186Z,7.70
2022-09-12T21:53:52.659Z,7.40
2022-09-12T21:56:21.448Z,7.10
2022-09-12T21:58:49.415Z,7.60
2022-09-12T22:01:17.432Z,6.80
2022-09-12T22:03:45.689Z,7.00
2022-09-12T22:06:14.557Z,7.10
2022-09-12T22:08:42.438Z,7.00
2022-09-12T22:11:11.006Z,7.10
2022-09-12T22:13:39.790Z,6.70
2022-09-12T22:16:08.028Z,7.20
2022-09-12T22:18:36.851Z,7.90
2022-09-12T22:21:04.766Z,6.90
2022-09-12T22:23:51.224Z,7.30
2022-09-12T22:26:19.007Z,7.70
2022-09-12T22:28:48.039Z,7.50
2022-09-12T22:31:17.092Z,7.20
2022-09-12T22:33:45.959Z,6.80
2022-09-12T22:36:13.903Z,7.00
2022-09-12T22:38:41.972Z,7.30
2022-09-12T22:41:11.105Z,7.40
2022-09-12T22:43:39.479Z,7.50
2022-09-12T22:46:12.788Z,6.90
2022-09-12T22:48:42.240Z,7.30
2022-09-12T22:51:11.366Z,9.30
2022-09-12T22:53:39.350Z,10.00
2022-09-12T22:56:08.246Z,12.30
2022-09-12T22:58:41.518Z,14.30
2022-09-12T23:01:10.583Z,12.30
2022-09-12T23:03:38.928Z,11.60
2022-09-12T23:06:07.549Z,12.40
2022-09-12T23:08:36.464Z,8.40
2022-09-12T23:11:09.861Z,7.30
2022-09-12T23:13:39.365Z,7.40
2022-09-12T23:16:08.146Z,7.30
2022-09-12T23:18:36.532Z,7.70
2022-09-12T23:21:05.755Z,7.50
2022-09-12T23:23:34.721Z,7.30
2022-09-12T23:26:08.829Z,7.00
2022-09-12T23:28:36.960Z,7.30
2022-09-12T23:31:05.678Z,6.80
2022-09-12T23:33:34.301Z,7.10
2022-09-12T23:36:06.857Z,6.60
2022-09-12T23:38:36.444Z,6.70
2022-09-12T23:41:05.250Z,6.50
2022-09-12T23:43:34.654Z,6.30
2022-09-12T23:46:02.753Z,6.40
2022-09-12T23:48:31.306Z,6.30
2022-09-12T23:50:59.521Z,6.00
2022-09-12T23:53:27.672Z,5.90
2022-09-12T23:55:55.447Z,6.10
2022-09-12T23:58:23.904Z,6.30
